createdAt,value
2018-09-19T00:01:11.440Z,19.38
2018-09-19T00:03:40.749Z,19.44
2018-09-19T00:06:09.938Z,19.44
2018-09-19T00:08:38.437Z,19.34
2018-09-19T00:11:08.005Z,19.43
2018-09-19T00:13:36.487Z,19.55
2018-09-19T00:16:09.193Z,19.63
2018-09-19T00:18:38.027Z,19.60
2018-09-19T00:21:07.479Z,19.64
2018-09-19T00:23:37.213Z,19.44
2018-09-19T00:26:05.898Z,19.34
2018-09-19T00:28:35.238Z,19.29
2018-09-19T00:31:03.959Z,19.35
2018-09-19T00:33:32.676Z,19.45
2018-09-19T00:36:02.812Z,19.55
2018-09-19T00:38:31.342Z,19.35
2018-09-19T00:40:59.826Z,19.12
2018-09-19T00:43:29.223Z,19.29
2018-09-19T00:45:59.544Z,19.34
2018-09-19T00:48:29.862Z,19.37
2018-09-19T00:50:58.338Z,19.30
2018-09-19T00:53:26.774Z,19.26
2018-09-19T00:55:56.449Z,19.24
2018-09-19T00:58:25.559Z,19.27
2018-09-19T01:00:54.245Z,19.10
2018-09-19T01:03:24.326Z,19.00
2018-09-19T01:05:53.521Z,18.94
2018-09-19T01:08:21.985Z,19.06
2018-09-19T01:10:51.936Z,18.98
2018-09-19T01:13:20.420Z,18.85
2018-09-19T01:15:49.830Z,18.78
2018-09-19T01:18:19.159Z,18.77
2018-09-19T01:20:47.644Z,18.81
2018-09-19T01:23:16.413Z,18.84
2018-09-19T01:25:45.311Z,18.87
2018-09-19T01:28:14.026Z,18.99
2018-09-19T01:30:42.849Z,19.07
2018-09-19T01:33:12.380Z,19.05
2018-09-19T01:35:40.846Z,19.00
2018-09-19T01:38:09.586Z,18.87
2018-09-19T01:40:38.636Z,18.76
2018-09-19T01:43:07.108Z,18.78
2018-09-19T01:45:36.474Z,18.71
2018-09-19T01:48:06.097Z,18.64
2018-09-19T01:50:35.986Z,18.54
2018-09-19T01:53:06.168Z,18.48
2018-09-19T01:55:35.287Z,18.60
2018-09-19T01:58:04.683Z,18.64
2018-09-19T02:00:35.128Z,18.52
2018-09-19T02:03:03.590Z,18.47
2018-09-19T02:05:33.017Z,18.49
2018-09-19T02:08:02.168Z,18.34
2018-09-19T02:10:30.895Z,18.39
2018-09-19T02:12:59.649Z,18.38
2018-09-19T02:15:28.107Z,18.30
2018-09-19T02:17:57.938Z,18.15
2018-09-19T02:20:26.389Z,18.03
2018-09-19T02:22:55.250Z,18.02
2018-09-19T02:25:23.720Z,18.04
2018-09-19T02:27:54.329Z,17.96
2018-09-19T02:30:23.314Z,17.93
2018-09-19T02:32:52.312Z,18.00
2018-09-19T02:35:22.757Z,18.03
2018-09-19T02:37:52.186Z,18.02
2018-09-19T02:40:20.644Z,18.09
2018-09-19T02:42:49.125Z,18.05
2018-09-19T02:45:19.358Z,18.10
2018-09-19T02:47:47.808Z,18.08
2018-09-19T02:50:17.216Z,18.07
2018-09-19T02:52:50.067Z,18.06
2018-09-19T02:55:19.794Z,17.87
2018-09-19T02:57:48.276Z,17.96
2018-09-19T03:00:17.159Z,18.00
2018-09-19T03:02:46.713Z,18.02
2018-09-19T03:05:15.187Z,18.04
2018-09-19T03:07:46.302Z,17.90
2018-09-19T03:10:15.644Z,17.77
2018-09-19T03:12:44.939Z,17.74
2018-09-19T03:15:14.546Z,17.65
2018-09-19T03:17:44.411Z,17.74
2018-09-19T03:20:12.967Z,17.38
2018-09-19T03:22:41.751Z,17.31
2018-09-19T03:25:10.791Z,17.36
2018-09-19T03:27:40.920Z,17.39
2018-09-19T03:30:09.404Z,17.41
2018-09-19T03:32:38.125Z,17.44
2018-09-19T03:35:09.749Z,17.50
2018-09-19T03:37:39.655Z,17.58
2018-09-19T03:40:08.771Z,17.69
2018-09-19T03:42:37.972Z,17.68
2018-09-19T03:45:06.528Z,17.76
2018-09-19T03:47:35.001Z,17.67
2018-09-19T03:50:03.946Z,17.60
2018-09-19T03:52:33.627Z,17.42
2018-09-19T03:55:02.181Z,17.37
2018-09-19T03:57:30.903Z,17.29
2018-09-19T04:00:00.316Z,17.35
2018-09-19T04:02:30.197Z,17.14
2018-09-19T04:04:58.869Z,17.13
2018-09-19T04:07:30.050Z,17.12
2018-09-19T04:10:00.420Z,17.02
2018-09-19T04:12:28.953Z,16.91
2018-09-19T04:14:57.933Z,16.71
2018-09-19T04:17:26.464Z,16.67
2018-09-19T04:19:55.269Z,16.84
2018-09-19T04:22:27.683Z,16.77
2018-09-19T04:24:56.141Z,17.00
2018-09-19T04:27:24.935Z,17.21
2018-09-19T04:29:53.907Z,17.11
2018-09-19T04:32:24.252Z,17.15
2018-09-19T04:34:54.208Z,17.02
2018-09-19T04:37:22.698Z,16.92
2018-09-19T04:39:51.899Z,17.02
2018-09-19T04:42:20.735Z,17.05
2018-09-19T04:44:50.331Z,17.07
2018-09-19T04:47:19.607Z,16.95
2018-09-19T04:49:48.723Z,16.96
2018-09-19T04:52:17.217Z,16.78
2018-09-19T04:54:46.168Z,16.49
2018-09-19T04:57:14.627Z,16.63
2018-09-19T04:59:44.333Z,16.65
2018-09-19T05:02:13.262Z,16.57
2018-09-19T05:04:42.641Z,16.70
2018-09-19T05:07:11.376Z,16.69
2018-09-19T05:09:41.125Z,16.68
2018-09-19T05:12:09.571Z,16.53
2018-09-19T05:14:38.452Z,16.59
2018-09-19T05:17:08.236Z,16.56
2018-09-19T05:19:38.035Z,16.64
2018-09-19T05:22:08.049Z,16.66
2018-09-19T05:24:38.792Z,16.66
2018-09-19T05:27:07.649Z,16.61
2018-09-19T05:29:36.992Z,16.66
2018-09-19T05:32:06.154Z,16.65
2018-09-19T05:34:34.659Z,16.70
2018-09-19T05:37:03.586Z,16.82
2018-09-19T05:39:32.098Z,16.79
2018-09-19T05:42:01.331Z,16.86
2018-09-19T05:44:30.032Z,16.79
2018-09-19T05:46:58.498Z,16.83
2018-09-19T05:49:27.395Z,16.80
2018-09-19T05:51:55.820Z,16.89
2018-09-19T05:54:24.396Z,17.04
2018-09-19T05:56:52.792Z,16.86
2018-09-19T05:59:21.335Z,16.89
2018-09-19T06:01:55.427Z,16.89
2018-09-19T06:04:24.219Z,16.88
2018-09-19T06:06:53.077Z,16.94
2018-09-19T06:09:23.035Z,16.99
2018-09-19T06:11:52.165Z,17.11
2018-09-19T06:14:20.935Z,17.26
2018-09-19T06:16:49.603Z,17.24
2018-09-19T06:19:18.781Z,17.30
2018-09-19T06:21:49.402Z,17.31
2018-09-19T06:24:17.842Z,17.37
2018-09-19T06:26:46.458Z,17.20
2018-09-19T06:29:15.401Z,17.36
2018-09-19T06:31:44.733Z,17.45
2018-09-19T06:34:13.936Z,17.32
2018-09-19T06:36:43.290Z,17.56
2018-09-19T06:39:12.540Z,17.58
2018-09-19T06:41:42.468Z,17.63
2018-09-19T06:44:11.298Z,17.74
2018-09-19T06:46:40.689Z,17.87
2018-09-19T06:49:09.622Z,18.13
2018-09-19T06:51:39.430Z,18.15
2018-09-19T06:54:08.798Z,18.13
2018-09-19T06:56:37.704Z,18.03
2018-09-19T06:59:06.497Z,18.07
2018-09-19T07:01:35.360Z,18.15
2018-09-19T07:04:05.003Z,18.31
2018-09-19T07:06:33.452Z,18.53
2018-09-19T07:09:02.202Z,18.63
2018-09-19T07:11:32.313Z,18.69
2018-09-19T07:14:05.652Z,18.74
2018-09-19T07:16:35.133Z,18.90
2018-09-19T07:19:04.360Z,19.02
2018-09-19T07:21:33.501Z,19.14
2018-09-19T07:24:02.206Z,19.29
2018-09-19T07:26:31.652Z,19.41
2018-09-19T07:29:00.744Z,19.47
2018-09-19T07:31:29.253Z,19.62
2018-09-19T07:33:58.049Z,19.71
2018-09-19T07:36:26.787Z,19.64
2018-09-19T07:38:56.226Z,19.82
2018-09-19T07:41:24.940Z,19.93
2018-09-19T07:43:53.750Z,19.95
2018-09-19T07:46:22.735Z,20.13
2018-09-19T07:48:53.693Z,20.26
2018-09-19T07:51:22.167Z,20.06
2018-09-19T07:53:50.977Z,20.07
2018-09-19T07:56:19.481Z,20.02
2018-09-19T07:58:48.271Z,19.96
2018-09-19T08:01:18.368Z,20.13
2018-09-19T08:03:47.134Z,20.42
2018-09-19T08:06:15.736Z,20.61
2018-09-19T08:08:44.722Z,20.80
2018-09-19T08:11:13.269Z,20.93
2018-09-19T08:13:45.522Z,21.03
2018-09-19T08:16:14.352Z,20.98
2018-09-19T08:18:42.885Z,21.10
2018-09-19T08:21:11.427Z,21.12
2018-09-19T08:23:39.864Z,21.33
2018-09-19T08:26:08.322Z,21.24
2018-09-19T08:28:37.155Z,21.24
2018-09-19T08:31:10.045Z,21.51
2018-09-19T08:33:38.755Z,21.75
2018-09-19T08:36:07.287Z,21.90
2018-09-19T08:38:36.292Z,22.11
2018-09-19T08:41:05.193Z,22.23
2018-09-19T08:43:33.898Z,22.32
2018-09-19T08:46:02.623Z,22.25
2018-09-19T08:48:32.037Z,22.55
2018-09-19T08:51:00.730Z,22.90
2018-09-19T08:53:29.505Z,23.12
2018-09-19T08:55:58.044Z,23.28
2018-09-19T08:58:28.058Z,23.25
2018-09-19T09:00:57.919Z,23.29
2018-09-19T09:03:28.809Z,23.39
2018-09-19T09:05:57.937Z,23.36
2018-09-19T09:08:26.664Z,23.53
2018-09-19T09:10:55.240Z,23.80
2018-09-19T09:13:24.329Z,23.60
2018-09-19T09:15:54.206Z,24.05
2018-09-19T09:18:25.845Z,23.92
2018-09-19T09:20:54.510Z,24.29
2018-09-19T09:23:24.229Z,24.22
2018-09-19T09:25:54.042Z,24.53
2018-09-19T09:28:23.255Z,24.83
2018-09-19T09:30:51.940Z,24.98
2018-09-19T09:33:27.479Z,24.85
2018-09-19T09:35:58.998Z,25.04
2018-09-19T09:38:28.986Z,24.98
2018-09-19T09:41:01.368Z,25.01
2018-09-19T09:43:30.791Z,24.49
2018-09-19T09:46:01.056Z,24.49
2018-09-19T09:48:30.158Z,24.86
2018-09-19T09:51:00.366Z,24.77
2018-09-19T09:53:28.893Z,24.98
2018-09-19T09:55:58.080Z,25.25
2018-09-19T09:58:26.951Z,25.54
2018-09-19T10:00:55.462Z,25.44
2018-09-19T10:03:24.847Z,25.57
2018-09-19T10:05:53.321Z,25.87
2018-09-19T10:08:22.479Z,25.79
2018-09-19T10:10:51.352Z,26.06
2018-09-19T10:13:20.044Z,26.32
2018-09-19T10:15:49.069Z,26.08
2018-09-19T10:18:17.686Z,26.12
2018-09-19T10:20:46.492Z,26.37
2018-09-19T10:23:15.288Z,26.57
2018-09-19T10:25:43.816Z,26.52
2018-09-19T10:28:12.249Z,26.97
2018-09-19T10:30:42.454Z,26.83
2018-09-19T10:33:11.052Z,26.95
2018-09-19T10:35:39.591Z,27.02
2018-09-19T10:38:09.041Z,27.49
2018-09-19T10:40:37.869Z,27.44
2018-09-19T10:43:06.712Z,27.64
2018-09-19T10:45:35.200Z,27.18
2018-09-19T10:48:03.700Z,27.06
2018-09-19T10:50:32.182Z,27.24
2018-09-19T10:53:00.990Z,27.13
2018-09-19T10:55:29.479Z,26.47
2018-09-19T10:57:58.787Z,26.87
2018-09-19T11:00:32.225Z,27.06
2018-09-19T11:03:01.244Z,27.38
2018-09-19T11:05:30.515Z,27.39
2018-09-19T11:07:58.969Z,27.69
2018-09-19T11:10:28.182Z,27.90
2018-09-19T11:12:58.519Z,27.95
2018-09-19T11:15:27.504Z,27.66
2018-09-19T11:17:55.980Z,28.28
2018-09-19T11:20:24.787Z,28.57
2018-09-19T11:22:53.253Z,28.84
2018-09-19T11:25:22.230Z,28.46
2018-09-19T11:27:50.937Z,28.78
2018-09-19T11:30:20.129Z,28.17
2018-09-19T11:32:48.951Z,28.21
2018-09-19T11:35:18.227Z,28.06
2018-09-19T11:37:47.728Z,28.50
2018-09-19T11:40:17.850Z,28.63
2018-09-19T11:42:47.710Z,28.93
2018-09-19T11:45:16.480Z,29.29
2018-09-19T11:47:44.970Z,29.31
2018-09-19T11:50:14.084Z,29.00
2018-09-19T11:52:44.956Z,29.22
2018-09-19T11:55:16.593Z,30.05
2018-09-19T11:57:45.461Z,29.58
2018-09-19T12:00:14.144Z,29.18
2018-09-19T12:02:42.614Z,28.69
2018-09-19T12:05:11.553Z,29.54
2018-09-19T12:07:40.100Z,29.12
2018-09-19T12:10:08.844Z,29.04
2018-09-19T12:12:38.311Z,28.67
2018-09-19T12:15:07.817Z,28.73
2018-09-19T12:17:36.538Z,28.89
2018-09-19T12:20:05.448Z,29.27
2018-09-19T12:22:34.376Z,29.38
2018-09-19T12:25:02.871Z,28.75
2018-09-19T12:27:33.179Z,29.41
2018-09-19T12:30:01.708Z,29.83
2018-09-19T12:32:30.528Z,30.26
2018-09-19T12:34:59.028Z,29.24
2018-09-19T12:37:27.787Z,29.43
2018-09-19T12:39:58.488Z,29.55
2018-09-19T12:42:27.354Z,29.34
2018-09-19T12:44:57.596Z,29.16
2018-09-19T12:47:26.040Z,29.34
2018-09-19T12:49:54.745Z,29.88
2018-09-19T12:52:23.681Z,29.62
2018-09-19T12:54:53.794Z,29.61
2018-09-19T12:57:22.232Z,29.48
2018-09-19T12:59:52.972Z,28.99
2018-09-19T13:02:21.509Z,29.61
2018-09-19T13:04:50.196Z,29.04
2018-09-19T13:07:19.020Z,29.05
2018-09-19T13:09:47.972Z,29.16
2018-09-19T13:12:16.676Z,29.29
2018-09-19T13:14:45.567Z,29.48
2018-09-19T13:17:14.023Z,29.24
2018-09-19T13:19:46.197Z,28.97
2018-09-19T13:22:14.680Z,29.00
2018-09-19T13:24:43.389Z,29.53
2018-09-19T13:27:11.870Z,28.89
2018-09-19T13:29:40.711Z,28.63
2018-09-19T13:32:09.190Z,28.58
2018-09-19T13:34:38.089Z,28.96
2018-09-19T13:37:07.481Z,29.51
2018-09-19T13:39:36.187Z,29.25
2018-09-19T13:42:04.915Z,29.34
2018-09-19T13:44:33.464Z,29.33
2018-09-19T13:47:03.088Z,28.97
2018-09-19T13:49:38.944Z,28.56
2018-09-19T13:52:07.834Z,28.91
2018-09-19T13:54:36.676Z,29.87
2018-09-19T13:57:05.499Z,29.50
2018-09-19T13:59:33.980Z,29.93
2018-09-19T14:02:02.456Z,29.58
2018-09-19T14:04:30.914Z,29.46
2018-09-19T14:07:00.496Z,29.40
2018-09-19T14:09:29.537Z,28.84
2018-09-19T14:11:59.055Z,29.18
2018-09-19T14:14:27.632Z,29.65
2018-09-19T14:16:57.569Z,29.28
2018-09-19T14:19:26.120Z,28.84
2018-09-19T14:21:55.542Z,28.97
2018-09-19T14:24:23.961Z,28.83
2018-09-19T14:26:52.864Z,28.78
2018-09-19T14:29:21.430Z,28.95
2018-09-19T14:31:50.757Z,28.92
2018-09-19T14:34:19.242Z,29.26
2018-09-19T14:36:47.730Z,29.78
2018-09-19T14:39:16.594Z,29.80
2018-09-19T14:41:45.620Z,29.39
2018-09-19T14:44:15.538Z,29.64
2018-09-19T14:46:44.030Z,29.49
2018-09-19T14:49:12.762Z,29.30
2018-09-19T14:51:41.756Z,29.34
2018-09-19T14:54:11.469Z,29.47
2018-09-19T14:56:41.119Z,29.79
2018-09-19T14:59:09.581Z,28.96
2018-09-19T15:01:38.068Z,29.25
2018-09-19T15:04:06.899Z,29.46
2018-09-19T15:06:35.357Z,29.40
2018-09-19T15:09:07.135Z,29.12
2018-09-19T15:11:37.478Z,29.28
2018-09-19T15:14:06.591Z,29.29
2018-09-19T15:16:35.390Z,29.55
2018-09-19T15:19:03.925Z,29.81
2018-09-19T15:21:37.017Z,29.74
2018-09-19T15:24:09.647Z,30.11
2018-09-19T15:26:39.089Z,30.13
2018-09-19T15:29:07.913Z,30.00
2018-09-19T15:31:39.416Z,29.95
2018-09-19T15:34:09.747Z,29.95
2018-09-19T15:36:38.196Z,29.84
2018-09-19T15:39:09.132Z,30.32
2018-09-19T15:41:40.726Z,30.43
2018-09-19T15:44:09.280Z,30.07
2018-09-19T15:46:37.857Z,30.24
2018-09-19T15:49:06.327Z,29.72
2018-09-19T15:51:35.813Z,30.05
2018-09-19T15:54:05.213Z,30.12
2018-09-19T15:56:33.765Z,29.51
2018-09-19T15:59:02.324Z,29.44
2018-09-19T16:01:31.897Z,29.97
2018-09-19T16:04:00.529Z,29.84
2018-09-19T16:06:30.200Z,29.88
2018-09-19T16:08:59.356Z,29.82
2018-09-19T16:11:27.824Z,30.21
2018-09-19T16:13:56.313Z,29.97
2018-09-19T16:16:25.484Z,29.56
2018-09-19T16:18:55.201Z,29.08
2018-09-19T16:21:25.035Z,29.36
2018-09-19T16:23:53.786Z,29.50
2018-09-19T16:26:23.209Z,29.52
2018-09-19T16:28:52.567Z,29.75
2018-09-19T16:31:21.392Z,29.98
2018-09-19T16:33:50.165Z,29.61
2018-09-19T16:36:19.616Z,29.21
2018-09-19T16:38:48.124Z,28.98
2018-09-19T16:41:17.292Z,28.83
2018-09-19T16:43:45.769Z,28.88
2018-09-19T16:46:14.987Z,28.81
2018-09-19T16:48:43.450Z,28.53
2018-09-19T16:51:12.679Z,28.84
2018-09-19T16:53:42.444Z,28.46
2018-09-19T16:56:11.684Z,28.41
2018-09-19T16:58:40.572Z,28.36
2018-09-19T17:01:09.044Z,28.63
2018-09-19T17:03:38.381Z,28.33
2018-09-19T17:06:07.576Z,28.21
2018-09-19T17:08:36.045Z,28.20
2018-09-19T17:11:04.868Z,28.06
2018-09-19T17:13:33.691Z,27.94
2018-09-19T17:16:02.376Z,27.80
2018-09-19T17:18:31.232Z,27.65
2018-09-19T17:21:00.123Z,27.61
2018-09-19T17:23:28.593Z,27.39
2018-09-19T17:25:57.094Z,27.29
2018-09-19T17:28:26.022Z,27.20
2018-09-19T17:30:54.809Z,27.01
2018-09-19T17:33:23.564Z,26.84
2018-09-19T17:35:52.912Z,26.85
2018-09-19T17:38:21.629Z,26.94
2018-09-19T17:40:51.001Z,26.98
2018-09-19T17:43:19.553Z,26.89
2018-09-19T17:45:49.576Z,26.89
2018-09-19T17:48:18.054Z,26.71
2018-09-19T17:50:46.568Z,26.57
2018-09-19T17:53:16.581Z,26.50
2018-09-19T17:55:45.088Z,26.61
2018-09-19T17:58:14.131Z,26.72
2018-09-19T18:00:42.745Z,26.84
2018-09-19T18:03:11.482Z,26.72
2018-09-19T18:05:41.313Z,26.71
2018-09-19T18:08:11.095Z,26.70
2018-09-19T18:10:40.525Z,26.34
2018-09-19T18:13:08.984Z,26.32
2018-09-19T18:15:37.906Z,26.30
2018-09-19T18:18:08.439Z,26.28
2018-09-19T18:20:38.831Z,26.19
2018-09-19T18:23:07.629Z,26.15
2018-09-19T18:25:36.724Z,26.14
2018-09-19T18:28:05.604Z,26.06
2018-09-19T18:30:34.689Z,26.07
2018-09-19T18:33:03.648Z,25.99
2018-09-19T18:35:32.093Z,26.04
2018-09-19T18:38:01.103Z,26.00
2018-09-19T18:40:30.395Z,25.92
2018-09-19T18:42:59.175Z,25.94
2018-09-19T18:45:28.065Z,25.71
2018-09-19T18:47:57.474Z,25.62
2018-09-19T18:50:25.976Z,25.40
2018-09-19T18:52:55.072Z,25.14
2018-09-19T18:55:23.950Z,25.10
2018-09-19T18:57:53.656Z,25.05
2018-09-19T19:00:23.122Z,25.09
2018-09-19T19:02:51.778Z,24.92
2018-09-19T19:05:20.880Z,24.64
2018-09-19T19:07:49.676Z,24.64
2018-09-19T19:10:19.103Z,24.63
2018-09-19T19:12:47.814Z,24.59
2018-09-19T19:15:16.534Z,24.52
2018-09-19T19:17:48.571Z,24.39
2018-09-19T19:20:17.016Z,24.34
2018-09-19T19:22:45.801Z,24.53
2018-09-19T19:25:14.673Z,24.62
2018-09-19T19:27:43.316Z,24.75
2018-09-19T19:30:12.148Z,24.66
2018-09-19T19:32:40.833Z,24.54
2018-09-19T19:35:10.340Z,24.36
2018-09-19T19:37:38.961Z,24.20
2018-09-19T19:40:08.110Z,24.25
2018-09-19T19:42:36.915Z,24.21
2018-09-19T19:45:07.306Z,23.97
2018-09-19T19:47:36.318Z,23.90
2018-09-19T19:50:05.248Z,23.88
2018-09-19T19:52:34.521Z,23.77
2018-09-19T19:55:02.993Z,23.70
2018-09-19T19:57:32.046Z,23.63
2018-09-19T20:00:00.493Z,23.53
2018-09-19T20:02:29.235Z,23.41
2018-09-19T20:04:58.638Z,23.42
2018-09-19T20:07:27.409Z,23.33
2018-09-19T20:09:55.870Z,23.35
2018-09-19T20:12:24.489Z,23.33
2018-09-19T20:14:52.925Z,23.24
2018-09-19T20:17:22.132Z,23.13
2018-09-19T20:19:57.145Z,23.14
2018-09-19T20:22:25.701Z,23.07
2018-09-19T20:24:54.529Z,23.17
2018-09-19T20:27:23.450Z,23.20
2018-09-19T20:29:53.643Z,23.22
2018-09-19T20:32:22.210Z,23.21
2018-09-19T20:34:51.451Z,22.91
2018-09-19T20:37:20.678Z,22.81
2018-09-19T20:39:49.162Z,22.68
2018-09-19T20:42:18.105Z,22.77
2018-09-19T20:44:47.016Z,22.77
2018-09-19T20:47:16.387Z,22.83
2018-09-19T20:49:46.927Z,22.75
2018-09-19T20:52:15.720Z,22.82
2018-09-19T20:54:44.457Z,23.00
2018-09-19T20:57:13.829Z,23.09
2018-09-19T20:59:47.764Z,23.10
2018-09-19T21:02:16.477Z,23.21
2018-09-19T21:04:45.512Z,23.21
2018-09-19T21:07:14.228Z,23.03
2018-09-19T21:09:43.098Z,23.16
2018-09-19T21:12:13.742Z,23.16
2018-09-19T21:14:43.089Z,23.16
2018-09-19T21:17:11.574Z,22.97
2018-09-19T21:19:41.434Z,22.93
2018-09-19T21:22:10.893Z,22.76
2018-09-19T21:24:41.605Z,22.69
2018-09-19T21:27:11.149Z,22.64
2018-09-19T21:29:39.664Z,22.71
2018-09-19T21:32:08.168Z,22.78
2018-09-19T21:34:37.069Z,22.88
2018-09-19T21:37:05.765Z,22.91
2018-09-19T21:39:34.675Z,22.97
2018-09-19T21:42:06.810Z,23.09
2018-09-19T21:44:35.528Z,22.82
2018-09-19T21:47:04.300Z,22.53
2018-09-19T21:49:33.249Z,22.41
2018-09-19T21:52:02.194Z,22.31
2018-09-19T21:54:30.906Z,22.27
2018-09-19T21:57:00.674Z,22.18
2018-09-19T21:59:29.385Z,22.01
2018-09-19T22:01:59.307Z,21.96
2018-09-19T22:04:27.997Z,21.82
2018-09-19T22:06:56.452Z,21.82
2018-09-19T22:09:24.942Z,21.70
2018-09-19T22:11:54.340Z,21.62
2018-09-19T22:14:23.097Z,21.60
2018-09-19T22:16:51.549Z,21.58
2018-09-19T22:19:20.933Z,21.55
2018-09-19T22:21:49.393Z,21.66
2018-09-19T22:24:19.081Z,21.63
2018-09-19T22:26:47.524Z,21.63
2018-09-19T22:29:15.997Z,21.61
2018-09-19T22:31:44.668Z,21.57
2018-09-19T22:34:14.982Z,21.51
2018-09-19T22:36:43.815Z,21.45
2018-09-19T22:39:13.120Z,21.29
2018-09-19T22:41:42.613Z,21.24
2018-09-19T22:44:11.793Z,21.16
2018-09-19T22:46:40.938Z,21.03
2018-09-19T22:49:10.958Z,20.80
2018-09-19T22:51:39.632Z,20.83
2018-09-19T22:54:08.584Z,20.82
2018-09-19T22:56:37.510Z,20.60
2018-09-19T22:59:06.912Z,20.51
2018-09-19T23:01:35.899Z,20.48
2018-09-19T23:04:05.185Z,20.27
2018-09-19T23:06:34.106Z,20.39
2018-09-19T23:09:03.028Z,20.34
2018-09-19T23:11:32.924Z,20.35
2018-09-19T23:14:01.612Z,20.37
2018-09-19T23:16:31.163Z,20.37
2018-09-19T23:19:00.370Z,20.51
2018-09-19T23:21:29.081Z,20.52
2018-09-19T23:23:58.548Z,20.56
2018-09-19T23:26:28.410Z,20.52
2018-09-19T23:28:57.097Z,20.47
2018-09-19T23:31:25.873Z,20.60
2018-09-19T23:33:54.332Z,20.51
2018-09-19T23:36:23.041Z,20.30
2018-09-19T23:38:52.488Z,20.18
2018-09-19T23:41:20.988Z,20.17
2018-09-19T23:43:49.586Z,20.03
2018-09-19T23:46:18.298Z,19.96
2018-09-19T23:48:48.125Z,19.95
2018-09-19T23:51:16.924Z,20.01
2018-09-19T23:53:46.086Z,19.97
2018-09-19T23:56:15.976Z,19.88
2018-09-19T23:58:45.639Z,19.79
